createdAt,value
2023-08-25T00:01:35.407Z,15.20
2023-08-25T00:04:03.278Z,11.68
2023-08-25T00:06:30.512Z,10.13
2023-08-25T00:08:57.706Z,9.45
2023-08-25T00:11:24.876Z,12.63
2023-08-25T00:13:52.131Z,8.55
2023-08-25T00:16:19.226Z,8.05
2023-08-25T00:18:48.651Z,7.10
2023-08-25T00:21:16.111Z,7.35
2023-08-25T00:23:43.235Z,10.60
2023-08-25T00:26:10.483Z,5.45
2023-08-25T00:28:37.593Z,8.75
2023-08-25T00:31:04.857Z,9.10
2023-08-25T00:33:32.076Z,8.57
2023-08-25T00:35:59.269Z,7.00
2023-08-25T00:38:29.507Z,8.80
2023-08-25T00:40:56.819Z,7.70
2023-08-25T00:43:24.025Z,7.18
2023-08-25T00:45:51.247Z,10.45
2023-08-25T00:48:18.929Z,13.48
2023-08-25T00:50:46.528Z,6.68
2023-08-25T00:53:14.143Z,11.00
2023-08-25T00:55:41.460Z,5.75
2023-08-25T00:58:09.182Z,7.32
2023-08-25T01:00:36.752Z,9.90
2023-08-25T01:03:04.273Z,7.35
2023-08-25T01:05:31.501Z,6.00
2023-08-25T01:07:58.806Z,9.98
2023-08-25T01:10:40.229Z,6.95
2023-08-25T01:13:20.087Z,5.78
2023-08-25T01:15:48.373Z,6.43
2023-08-25T01:18:22.171Z,5.22
2023-08-25T01:23:21.001Z,12.40
2023-08-25T01:25:49.633Z,8.35
2023-08-25T01:28:16.910Z,11.88
2023-08-25T01:30:45.847Z,7.22
2023-08-25T01:33:13.864Z,5.45
2023-08-25T01:35:59.880Z,5.85
2023-08-25T01:38:30.564Z,7.75
2023-08-25T01:41:02.165Z,5.88
2023-08-25T01:43:31.148Z,6.88
2023-08-25T01:45:58.831Z,8.43
2023-08-25T01:48:26.482Z,7.63
2023-08-25T01:50:53.692Z,7.80
2023-08-25T01:53:21.224Z,9.77
2023-08-25T01:55:48.357Z,8.25
2023-08-25T01:58:15.787Z,7.40
2023-08-25T02:00:43.060Z,6.57
2023-08-25T02:03:14.541Z,12.27
2023-08-25T02:05:42.456Z,8.98
2023-08-25T02:08:09.693Z,7.50
2023-08-25T02:10:36.890Z,7.10
2023-08-25T02:13:04.071Z,6.85
2023-08-25T02:15:31.219Z,5.93
2023-08-25T02:17:58.522Z,7.72
2023-08-25T02:20:25.725Z,9.93
2023-08-25T02:22:52.960Z,7.03
2023-08-25T02:25:20.156Z,5.97
2023-08-25T02:27:47.406Z,4.50
2023-08-25T02:30:14.567Z,5.32
2023-08-25T02:32:41.744Z,6.97
2023-08-25T02:35:09.239Z,6.93
2023-08-25T02:37:36.357Z,7.85
2023-08-25T02:40:04.131Z,5.10
2023-08-25T02:42:31.269Z,5.07
2023-08-25T02:44:58.377Z,10.02
2023-08-25T02:47:25.634Z,3.88
2023-08-25T02:49:53.418Z,4.30
2023-08-25T02:52:20.858Z,8.40
2023-08-25T02:54:48.096Z,5.22
2023-08-25T02:57:15.359Z,3.65
2023-08-25T02:59:42.676Z,3.72
2023-08-25T03:02:09.868Z,5.07
2023-08-25T03:04:37.009Z,4.32
2023-08-25T03:07:04.184Z,5.15
2023-08-25T03:09:31.437Z,3.90
2023-08-25T03:11:58.564Z,2.38
2023-08-25T03:14:29.214Z,5.10
2023-08-25T03:16:56.379Z,5.93
2023-08-25T03:19:23.684Z,4.82
2023-08-25T03:21:50.840Z,6.30
2023-08-25T03:24:18.088Z,3.30
2023-08-25T03:26:45.316Z,3.17
2023-08-25T03:29:12.621Z,4.18
2023-08-25T03:31:39.880Z,4.60
2023-08-25T03:34:07.008Z,3.97
2023-08-25T03:36:34.934Z,4.07
2023-08-25T03:39:02.029Z,6.82
2023-08-25T03:41:29.301Z,4.93
2023-08-25T03:43:56.441Z,3.33
2023-08-25T03:46:23.684Z,4.47
2023-08-25T03:48:50.838Z,6.47
2023-08-25T03:51:17.955Z,7.72
2023-08-25T03:53:45.079Z,2.35
2023-08-25T03:56:12.618Z,5.85
2023-08-25T03:58:39.793Z,2.67
2023-08-25T04:01:07.106Z,4.03
2023-08-25T04:03:34.836Z,5.93
2023-08-25T04:06:02.288Z,3.00
2023-08-25T04:08:29.401Z,6.07
2023-08-25T04:10:56.705Z,2.20
2023-08-25T04:13:23.839Z,6.15
2023-08-25T04:15:57.936Z,6.45
2023-08-25T04:18:25.536Z,5.47
2023-08-25T04:20:52.970Z,2.67
2023-08-25T04:23:20.165Z,4.80
2023-08-25T04:25:47.240Z,6.60
2023-08-25T04:28:14.608Z,4.22
2023-08-25T04:30:41.881Z,4.35
2023-08-25T04:33:09.163Z,3.35
2023-08-25T04:35:37.802Z,4.38
2023-08-25T04:38:06.052Z,3.22
2023-08-25T04:40:33.175Z,4.85
2023-08-25T04:43:00.319Z,4.28
2023-08-25T04:45:28.917Z,4.80
2023-08-25T04:47:56.453Z,5.03
2023-08-25T04:50:24.275Z,3.50
2023-08-25T04:52:51.902Z,2.60
2023-08-25T04:55:19.272Z,2.63
2023-08-25T04:57:47.128Z,3.00
2023-08-25T05:00:15.954Z,3.30
2023-08-25T05:02:43.178Z,3.50
2023-08-25T05:05:12.668Z,4.50
2023-08-25T05:07:40.752Z,3.92
2023-08-25T05:10:08.648Z,5.72
2023-08-25T05:12:35.756Z,6.30
2023-08-25T05:15:03.848Z,5.68
2023-08-25T05:17:31.506Z,3.90
2023-08-25T05:19:58.642Z,3.38
2023-08-25T05:22:25.773Z,5.47
2023-08-25T05:24:56.035Z,1.98
2023-08-25T05:27:23.366Z,4.95
2023-08-25T05:29:50.712Z,4.18
2023-08-25T05:32:17.967Z,5.20
2023-08-25T05:34:45.196Z,3.08
2023-08-25T05:37:12.597Z,9.45
2023-08-25T05:39:40.132Z,3.47
2023-08-25T05:42:09.232Z,4.40
2023-08-25T05:44:36.766Z,6.40
2023-08-25T05:47:04.917Z,5.70
2023-08-25T05:49:32.724Z,6.22
2023-08-25T05:52:00.038Z,5.28
2023-08-25T05:54:27.574Z,3.75
2023-08-25T05:56:55.241Z,4.55
2023-08-25T05:59:22.882Z,5.47
2023-08-25T06:01:50.050Z,2.20
2023-08-25T06:04:17.649Z,5.13
2023-08-25T06:06:45.423Z,4.53
2023-08-25T06:09:14.262Z,4.68
2023-08-25T06:11:41.445Z,4.13
2023-08-25T06:14:08.654Z,3.47
2023-08-25T06:16:39.152Z,3.53
2023-08-25T06:19:06.717Z,2.70
2023-08-25T06:21:34.072Z,2.38
2023-08-25T06:24:01.390Z,3.50
2023-08-25T06:26:28.987Z,2.15
2023-08-25T06:28:57.721Z,3.00
2023-08-25T06:31:25.048Z,4.28
2023-08-25T06:33:52.381Z,3.10
2023-08-25T06:36:19.604Z,4.85
2023-08-25T06:38:56.324Z,5.03
2023-08-25T06:41:24.425Z,3.40
2023-08-25T06:43:51.918Z,4.38
2023-08-25T06:46:19.404Z,3.13
2023-08-25T06:48:46.943Z,4.47
2023-08-25T06:51:14.192Z,2.92
2023-08-25T06:53:42.099Z,6.57
2023-08-25T06:56:09.485Z,2.47
2023-08-25T06:58:38.421Z,2.15
2023-08-25T07:01:06.150Z,2.55
2023-08-25T07:03:35.446Z,5.50
2023-08-25T07:06:02.985Z,5.30
2023-08-25T07:08:30.270Z,3.88
2023-08-25T07:10:57.765Z,4.70
2023-08-25T07:13:25.322Z,4.25
2023-08-25T07:15:52.650Z,4.45
2023-08-25T07:18:20.243Z,5.47
2023-08-25T07:20:47.704Z,5.07
2023-08-25T07:23:15.219Z,3.55
2023-08-25T07:25:45.331Z,3.30
2023-08-25T07:28:13.168Z,2.58
2023-08-25T07:30:40.860Z,5.43
2023-08-25T07:33:08.751Z,3.80
2023-08-25T07:35:36.579Z,3.70
2023-08-25T07:38:04.512Z,5.10
2023-08-25T07:40:33.255Z,2.22
2023-08-25T07:43:04.317Z,2.90
2023-08-25T07:45:32.399Z,4.63
2023-08-25T07:48:01.238Z,5.90
2023-08-25T07:50:32.011Z,3.13
2023-08-25T07:53:00.082Z,4.13
2023-08-25T07:55:27.556Z,2.38
2023-08-25T07:57:55.306Z,4.88
2023-08-25T08:00:23.362Z,3.78
2023-08-25T08:02:51.380Z,5.85
2023-08-25T08:05:19.652Z,2.80
2023-08-25T08:07:49.636Z,3.72
2023-08-25T08:10:19.063Z,6.97
2023-08-25T08:12:46.918Z,6.22
2023-08-25T08:15:14.672Z,5.05
2023-08-25T08:17:42.644Z,5.18
2023-08-25T08:20:14.119Z,3.38
2023-08-25T08:22:42.410Z,8.70
2023-08-25T08:25:11.733Z,6.32
2023-08-25T08:27:42.421Z,4.75
2023-08-25T08:30:10.399Z,3.83
2023-08-25T08:32:38.104Z,7.10
2023-08-25T08:35:09.322Z,5.10
2023-08-25T08:37:37.306Z,5.85
2023-08-25T08:40:11.641Z,6.45
2023-08-25T08:42:40.502Z,9.13
2023-08-25T08:45:12.212Z,5.20
2023-08-25T08:47:40.391Z,6.78
2023-08-25T08:50:09.285Z,4.25
2023-08-25T08:52:36.954Z,3.95
2023-08-25T08:55:08.610Z,3.80
2023-08-25T08:57:36.136Z,5.10
2023-08-25T09:00:11.862Z,7.03
2023-08-25T09:02:39.582Z,5.13
2023-08-25T09:05:07.180Z,5.43
2023-08-25T09:07:34.698Z,6.13
2023-08-25T09:10:02.472Z,5.32
2023-08-25T09:12:30.655Z,7.70
2023-08-25T09:14:58.003Z,7.70
2023-08-25T09:17:25.226Z,9.35
2023-08-25T09:19:52.873Z,7.30
2023-08-25T09:22:20.529Z,7.40
2023-08-25T09:24:47.854Z,6.40
2023-08-25T09:27:25.564Z,6.78
2023-08-25T09:30:00.581Z,5.68
2023-08-25T09:32:29.446Z,6.10
2023-08-25T09:34:57.392Z,10.75
2023-08-25T09:37:40.810Z,8.02
2023-08-25T09:40:10.497Z,5.45
2023-08-25T09:42:38.105Z,8.32
2023-08-25T09:45:05.424Z,7.22
2023-08-25T09:47:33.551Z,6.68
2023-08-25T09:50:00.959Z,6.03
2023-08-25T09:52:28.146Z,7.15
2023-08-25T09:54:55.302Z,6.70
2023-08-25T09:57:25.407Z,9.60
2023-08-25T09:59:52.679Z,7.18
2023-08-25T10:02:20.132Z,4.97
2023-08-25T10:04:48.358Z,8.68
2023-08-25T10:07:16.990Z,7.43
2023-08-25T10:09:44.337Z,7.68
2023-08-25T10:12:13.355Z,6.03
2023-08-25T10:14:43.441Z,6.90
2023-08-25T10:17:12.032Z,9.18
2023-08-25T10:19:39.839Z,7.10
2023-08-25T10:22:08.148Z,7.18
2023-08-25T10:24:36.485Z,5.03
2023-08-25T10:27:04.248Z,5.53
2023-08-25T10:29:32.895Z,5.10
2023-08-25T10:32:01.189Z,8.48
2023-08-25T10:34:39.224Z,7.72
2023-08-25T10:37:07.267Z,4.72
2023-08-25T10:39:50.637Z,6.20
2023-08-25T10:42:22.206Z,9.23
2023-08-25T10:44:53.730Z,6.47
2023-08-25T10:47:22.318Z,5.35
2023-08-25T10:49:53.844Z,4.13
2023-08-25T10:52:21.609Z,4.75
2023-08-25T10:54:49.160Z,7.07
2023-08-25T10:57:39.393Z,6.82
2023-08-25T11:00:26.168Z,8.27
2023-08-25T11:02:53.345Z,5.55
2023-08-25T11:05:30.281Z,5.40
2023-08-25T11:07:58.140Z,5.03
2023-08-25T11:10:26.118Z,4.25
2023-08-25T11:13:07.281Z,5.97
2023-08-25T11:15:40.135Z,5.73
2023-08-25T11:18:07.735Z,8.20
2023-08-25T11:20:35.187Z,8.55
2023-08-25T11:23:18.292Z,5.40
2023-08-25T11:25:46.925Z,5.70
2023-08-25T11:28:14.064Z,7.43
2023-08-25T11:30:41.633Z,7.53
2023-08-25T11:33:10.285Z,8.73
2023-08-25T11:35:37.980Z,5.35
2023-08-25T11:38:05.277Z,7.10
2023-08-25T11:40:32.471Z,4.20
2023-08-25T11:42:59.938Z,5.60
2023-08-25T11:45:32.485Z,8.40
2023-08-25T11:47:59.876Z,8.25
2023-08-25T11:50:27.029Z,6.22
2023-08-25T11:52:59.901Z,6.85
2023-08-25T11:55:34.496Z,6.18
2023-08-25T11:58:08.074Z,7.28
2023-08-25T12:00:39.258Z,6.00
2023-08-25T12:03:07.692Z,9.15
2023-08-25T12:05:37.861Z,6.82
2023-08-25T12:08:05.181Z,6.93
2023-08-25T12:10:36.801Z,7.20
2023-08-25T12:13:04.245Z,8.52
2023-08-25T12:15:46.564Z,9.32
2023-08-25T12:18:14.485Z,7.13
2023-08-25T12:20:45.656Z,7.50
2023-08-25T12:23:12.988Z,7.88
2023-08-25T12:25:43.530Z,7.53
2023-08-25T12:28:12.037Z,5.75
2023-08-25T12:30:39.741Z,5.18
2023-08-25T12:33:07.502Z,6.97
2023-08-25T12:35:35.372Z,6.55
2023-08-25T12:38:03.210Z,8.65
2023-08-25T12:40:30.600Z,5.78
2023-08-25T12:42:57.726Z,6.43
2023-08-25T12:45:25.508Z,7.20
2023-08-25T12:47:53.697Z,10.35
2023-08-25T12:50:21.268Z,8.40
2023-08-25T12:52:48.538Z,9.20
2023-08-25T12:55:21.237Z,8.35
2023-08-25T12:57:50.606Z,16.90
2023-08-25T13:00:18.261Z,4.80
2023-08-25T13:02:45.901Z,7.55
2023-08-25T13:05:13.882Z,5.45
2023-08-25T13:07:41.476Z,8.50
2023-08-25T13:10:09.691Z,5.85
2023-08-25T13:12:37.190Z,6.40
2023-08-25T13:15:04.649Z,10.77
2023-08-25T13:17:31.989Z,6.53
2023-08-25T13:19:59.090Z,8.10
2023-08-25T13:22:26.459Z,6.40
2023-08-25T13:24:53.659Z,8.02
2023-08-25T13:27:20.949Z,6.43
2023-08-25T13:29:48.278Z,5.20
2023-08-25T13:32:15.704Z,6.57
2023-08-25T13:34:42.815Z,6.38
2023-08-25T13:37:10.948Z,6.30
2023-08-25T13:39:39.900Z,8.60
2023-08-25T13:42:10.049Z,8.07
2023-08-25T13:44:40.228Z,6.60
2023-08-25T13:47:10.441Z,11.20
2023-08-25T13:49:38.869Z,9.07
2023-08-25T13:52:08.181Z,6.72
2023-08-25T13:54:35.701Z,8.57
2023-08-25T13:57:04.158Z,9.68
2023-08-25T13:59:31.760Z,8.10
2023-08-25T14:01:59.638Z,8.65
2023-08-25T14:04:26.790Z,5.55
2023-08-25T14:06:53.912Z,7.90
2023-08-25T14:09:21.016Z,8.10
2023-08-25T14:11:48.220Z,7.40
2023-08-25T14:14:15.812Z,6.30
2023-08-25T14:16:43.154Z,6.55
2023-08-25T14:19:10.503Z,11.63
2023-08-25T14:21:37.648Z,6.97
2023-08-25T14:24:05.029Z,6.90
2023-08-25T14:26:32.195Z,6.60
2023-08-25T14:28:59.464Z,6.93
2023-08-25T14:31:26.729Z,8.75
2023-08-25T14:33:53.897Z,9.52
2023-08-25T14:36:21.117Z,10.95
2023-08-25T14:38:48.308Z,7.80
2023-08-25T14:41:15.472Z,6.80
2023-08-25T14:43:42.786Z,9.15
2023-08-25T14:46:11.077Z,9.40
2023-08-25T14:48:40.434Z,9.57
2023-08-25T14:51:07.682Z,8.18
2023-08-25T14:53:34.891Z,8.13
2023-08-25T14:56:02.067Z,6.30
2023-08-25T14:58:29.334Z,7.88
2023-08-25T15:00:56.999Z,6.57
2023-08-25T15:03:25.159Z,8.38
2023-08-25T15:05:59.305Z,8.90
2023-08-25T15:08:26.730Z,12.45
2023-08-25T15:10:53.884Z,10.85
2023-08-25T15:13:21.161Z,11.82
2023-08-25T15:15:49.895Z,14.43
2023-08-25T15:18:18.352Z,9.65
2023-08-25T15:20:45.270Z,10.90
2023-08-25T15:23:12.397Z,12.00
2023-08-25T15:25:39.094Z,11.63
2023-08-25T15:28:06.431Z,11.88
2023-08-25T15:30:33.707Z,8.77
2023-08-25T15:33:00.996Z,12.88
2023-08-25T15:35:28.770Z,11.05
2023-08-25T15:37:56.643Z,9.05
2023-08-25T15:40:24.138Z,11.07
2023-08-25T15:42:51.202Z,10.80
2023-08-25T15:45:18.352Z,10.77
2023-08-25T15:47:45.283Z,10.55
2023-08-25T15:50:12.449Z,10.60
2023-08-25T15:52:39.625Z,12.23
2023-08-25T15:55:07.930Z,9.35
2023-08-25T16:00:06.466Z,11.70
2023-08-25T16:02:33.338Z,8.85
2023-08-25T16:05:00.149Z,9.35
2023-08-25T16:07:27.029Z,13.00
2023-08-25T16:09:53.811Z,11.18
2023-08-25T16:12:20.511Z,8.30
2023-08-25T16:14:48.132Z,12.27
2023-08-25T16:17:14.818Z,13.77
2023-08-25T16:19:41.494Z,8.63
2023-08-25T16:22:09.473Z,12.45
2023-08-25T16:24:38.257Z,11.15
2023-08-25T16:27:05.170Z,11.90
2023-08-25T16:29:31.899Z,11.00
2023-08-25T16:31:58.748Z,12.63
2023-08-25T16:34:25.460Z,9.85
2023-08-25T16:36:52.284Z,10.60
2023-08-25T16:39:19.044Z,12.27
2023-08-25T16:41:46.220Z,12.48
2023-08-25T16:44:13.678Z,11.27
2023-08-25T16:46:41.483Z,11.73
2023-08-25T16:49:08.584Z,10.75
2023-08-25T16:51:35.688Z,13.38
2023-08-25T16:54:03.517Z,8.18
2023-08-25T16:56:31.004Z,9.77
2023-08-25T16:58:58.336Z,9.10
2023-08-25T17:01:25.514Z,11.63
2023-08-25T17:03:52.825Z,12.63
2023-08-25T17:06:20.819Z,9.02
2023-08-25T17:08:48.089Z,10.23
2023-08-25T17:11:15.434Z,11.07
2023-08-25T17:13:42.685Z,12.20
2023-08-25T17:16:10.766Z,10.10
2023-08-25T17:18:38.132Z,13.55
2023-08-25T17:21:05.356Z,13.07
2023-08-25T17:23:33.228Z,11.55
2023-08-25T17:26:00.655Z,11.80
2023-08-25T17:28:30.861Z,11.98
2023-08-25T17:31:07.259Z,9.75
2023-08-25T17:33:36.151Z,13.63
2023-08-25T17:36:11.524Z,11.15
2023-08-25T17:38:38.846Z,17.15
2023-08-25T17:41:11.946Z,12.57
2023-08-25T17:43:39.820Z,15.60
2023-08-25T17:46:08.400Z,23.60
2023-08-25T17:48:35.737Z,19.67
2023-08-25T17:51:02.899Z,12.95
2023-08-25T17:53:30.426Z,12.55
2023-08-25T17:55:58.615Z,14.90
2023-08-25T17:58:25.904Z,15.23
2023-08-25T18:01:06.851Z,9.90
2023-08-25T18:03:35.148Z,10.27
2023-08-25T18:06:04.093Z,11.02
2023-08-25T18:08:32.698Z,11.48
2023-08-25T18:11:00.390Z,13.38
2023-08-25T18:13:27.629Z,11.55
2023-08-25T18:15:55.863Z,11.07
2023-08-25T18:18:23.429Z,11.05
2023-08-25T18:20:59.469Z,13.68
2023-08-25T18:23:29.023Z,14.32
2023-08-25T18:25:57.176Z,12.82
2023-08-25T18:28:24.758Z,12.13
2023-08-25T18:31:01.293Z,13.45
2023-08-25T18:33:29.743Z,11.70
2023-08-25T18:35:57.968Z,10.43
2023-08-25T18:38:25.709Z,12.77
2023-08-25T18:40:52.937Z,11.13
2023-08-25T18:43:20.283Z,12.75
2023-08-25T18:45:47.482Z,14.35
2023-08-25T18:48:15.581Z,12.48
2023-08-25T18:50:43.594Z,12.98
2023-08-25T18:53:10.804Z,13.30
2023-08-25T18:55:37.974Z,17.40
2023-08-25T18:58:06.896Z,17.08
2023-08-25T19:00:34.164Z,15.45
2023-08-25T19:03:02.386Z,14.02
2023-08-25T19:05:29.753Z,15.45
2023-08-25T19:07:58.664Z,14.63
2023-08-25T19:10:30.473Z,15.45
2023-08-25T19:12:58.032Z,14.30
2023-08-25T19:15:25.272Z,14.15
2023-08-25T19:17:52.611Z,15.32
2023-08-25T19:20:22.833Z,16.95
2023-08-25T19:22:53.589Z,15.60
2023-08-25T19:25:21.224Z,15.45
2023-08-25T19:27:48.310Z,16.20
2023-08-25T19:30:15.612Z,15.52
2023-08-25T19:32:42.771Z,14.52
2023-08-25T19:35:10.616Z,14.77
2023-08-25T19:37:37.754Z,17.60
2023-08-25T19:40:09.614Z,12.82
2023-08-25T19:42:36.762Z,14.90
2023-08-25T19:45:05.025Z,17.80
2023-08-25T19:47:32.293Z,16.95
2023-08-25T19:49:59.453Z,19.52
2023-08-25T19:52:26.753Z,14.55
2023-08-25T19:54:53.884Z,17.33
2023-08-25T19:57:21.043Z,16.27
2023-08-25T19:59:48.405Z,15.20
2023-08-25T20:02:15.557Z,16.02
2023-08-25T20:04:43.727Z,14.60
2023-08-25T20:07:10.876Z,15.57
2023-08-25T20:09:40.352Z,16.00
2023-08-25T20:12:07.978Z,16.67
2023-08-25T20:14:35.264Z,16.73
2023-08-25T20:17:02.366Z,15.70
2023-08-25T20:19:29.608Z,16.02
2023-08-25T20:21:56.722Z,20.13
2023-08-25T20:24:23.900Z,15.35
2023-08-25T20:26:50.975Z,15.82
2023-08-25T20:29:18.152Z,15.73
2023-08-25T20:31:45.291Z,15.35
2023-08-25T20:34:13.666Z,16.42
2023-08-25T20:36:40.798Z,15.57
2023-08-25T20:39:07.992Z,16.15
2023-08-25T20:41:35.106Z,13.10
2023-08-25T20:44:02.267Z,17.15
2023-08-25T20:46:29.490Z,15.68
2023-08-25T20:48:56.693Z,17.10
2023-08-25T20:51:25.622Z,17.35
2023-08-25T20:53:54.060Z,15.15
2023-08-25T20:56:21.700Z,16.33
2023-08-25T20:58:48.590Z,14.23
2023-08-25T21:01:15.408Z,17.13
2023-08-25T21:03:42.419Z,16.38
2023-08-25T21:06:09.429Z,14.13
2023-08-25T21:08:36.745Z,16.83
2023-08-25T21:11:03.470Z,16.77
2023-08-25T21:13:30.185Z,15.10
2023-08-25T21:15:58.540Z,16.38
2023-08-25T21:18:25.348Z,15.88
2023-08-25T21:20:54.132Z,15.02
2023-08-25T21:23:22.567Z,16.15
2023-08-25T21:25:57.368Z,15.05
2023-08-25T21:28:26.634Z,14.65
2023-08-25T21:30:54.686Z,15.13
2023-08-25T21:33:22.638Z,15.55
2023-08-25T21:35:50.046Z,16.17
2023-08-25T21:38:17.489Z,15.70
2023-08-25T21:40:45.239Z,15.88
2023-08-25T21:43:13.717Z,16.58
2023-08-25T21:45:40.893Z,15.68
2023-08-25T21:48:08.158Z,15.65
2023-08-25T21:50:35.409Z,15.13
2023-08-25T21:53:02.631Z,16.42
2023-08-25T21:55:29.749Z,15.07
2023-08-25T21:57:57.057Z,13.80
2023-08-25T22:00:24.256Z,15.60
2023-08-25T22:02:51.612Z,20.33
2023-08-25T22:05:19.535Z,14.93
2023-08-25T22:07:46.705Z,15.68
2023-08-25T22:10:13.830Z,17.58
2023-08-25T22:12:40.928Z,16.05
2023-08-25T22:15:08.305Z,18.63
2023-08-25T22:17:35.515Z,16.33
2023-08-25T22:20:07.407Z,15.63
2023-08-25T22:22:35.145Z,15.80
2023-08-25T22:25:02.548Z,15.98
2023-08-25T22:27:29.698Z,16.15
2023-08-25T22:29:56.829Z,16.40
2023-08-25T22:34:54.029Z,13.93
2023-08-25T22:37:21.129Z,16.63
2023-08-25T22:39:48.414Z,15.85
2023-08-25T22:42:15.504Z,14.10
2023-08-25T22:44:42.599Z,15.18
2023-08-25T22:47:10.214Z,12.90
2023-08-25T22:49:37.439Z,14.38
2023-08-25T22:52:04.702Z,17.95
2023-08-25T22:54:31.864Z,15.10
2023-08-25T22:56:59.693Z,18.83
2023-08-25T22:59:26.820Z,12.90
2023-08-25T23:01:54.444Z,16.08
2023-08-25T23:04:21.630Z,13.30
2023-08-25T23:06:49.133Z,14.45
2023-08-25T23:09:19.553Z,14.07
2023-08-25T23:11:46.958Z,17.17
2023-08-25T23:14:14.300Z,14.27
2023-08-25T23:16:41.426Z,12.98
2023-08-25T23:19:08.528Z,13.48
2023-08-25T23:21:35.752Z,15.25
2023-08-25T23:24:02.932Z,14.27
2023-08-25T23:26:30.609Z,13.90
2023-08-25T23:28:57.787Z,13.93
2023-08-25T23:31:24.967Z,12.82
2023-08-25T23:33:52.172Z,13.43
2023-08-25T23:36:19.264Z,12.85
2023-08-25T23:38:46.374Z,14.05
2023-08-25T23:41:13.551Z,13.55
2023-08-25T23:43:40.665Z,13.05
2023-08-25T23:46:08.091Z,13.68
2023-08-25T23:48:35.708Z,16.38
2023-08-25T23:51:04.556Z,14.30
2023-08-25T23:53:31.806Z,12.02
2023-08-25T23:55:59.185Z,13.23
2023-08-25T23:58:26.840Z,11.52
